Terminal Aerodrome Forecast
Issued by NWS

Home | Current Version | Previous Version | Text Only | Print | Product List | Glossary On
Versions: 1 2 3 4 5 6 7 8 9 10 11 12 13
900
FTUS45 KTFX 301720
TAFHVR
TAF
KHVR 301720Z 3018/0118 23016KT P6SM BKN090
     FM302100 26020G28KT P6SM VCSH SCT070 BKN120
     FM010200 31015KT P6SM VCSH BKN070
      TEMPO 0106/0110 4SM -SHRA OVC025
     FM011300 31009KT P6SM VCSH SCT070 BKN100=

USA.gov is the U.S. government's official web portal to all federal, state and local government web resources and services.